Time;durP1;ratioP1;P1;durP2;ratioP2;P2;SDS_P1;SDS_P2;PMS_P1;PMS_P2;Temp;Humidity;BMP_temperature;BMP_pressure;BME280_temperature;BME280_humidity;BME280_pressure;Samples;Min_cycle;Max_cycle;Signal;HPM_P1;HPM_P2
2023/02/09 00:00:11;;;;;;;;;55.20;48.20;;;;;6.46;45.11;102571.03;2062334;28;46435;-61
2023/02/09 00:01:14;;;;;;;;;64.20;50.60;;;;;6.46;45.09;102577.19;2054349;28;46602;-60
2023/02/09 00:02:15;;;;;;;;;59.80;50.00;;;;;6.45;44.96;102577.16;2055173;28;46585;-62
2023/02/09 00:03:15;;;;;;;;;60.00;48.75;;;;;6.44;44.96;102584.19;2062003;28;45832;-60
2023/02/09 00:04:15;;;;;;;;;62.25;51.75;;;;;6.43;45.38;102578.88;2061370;28;47111;-61
2023/02/09 00:05:16;;;;;;;;;64.25;52.25;;;;;6.42;45.00;102582.38;2064326;28;46712;-60
2023/02/09 00:06:19;;;;;;;;;66.25;54.00;;;;;6.42;45.34;102577.09;2060182;28;46884;-61
2023/02/09 00:07:19;;;;;;;;;67.75;55.25;;;;;6.41;45.25;102577.94;2062472;28;46438;-61
2023/02/09 00:08:19;;;;;;;;;75.50;59.75;;;;;6.39;45.30;102577.91;2062432;28;46354;-61
2023/02/09 00:09:20;;;;;;;;;75.25;59.00;;;;;6.38;44.83;102578.78;2062607;28;46645;-61
2023/02/09 00:10:20;;;;;;;;;74.75;60.00;;;;;6.38;45.39;102583.16;2062667;28;46264;-62
2023/02/09 00:14:04;;;;;;;;;85.00;70.00;;;;;6.35;45.66;102570.78;2057091;28;46711;-60
2023/02/09 00:15:06;;;;;;;;;76.25;61.50;;;;;6.36;45.57;102574.31;2095630;28;46358;-60
2023/02/09 00:16:06;;;;;;;;;75.50;61.00;;;;;6.36;45.35;102567.31;2094868;28;45971;-61
2023/02/09 00:17:07;;;;;;;;;73.75;60.25;;;;;6.35;45.50;102564.59;2062601;28;45954;-61
2023/02/09 00:18:07;;;;;;;;;78.75;62.00;;;;;6.33;45.19;102567.19;2062583;28;46392;-61
2023/02/09 00:19:08;;;;;;;;;76.25;62.25;;;;;6.34;45.41;102566.34;2062126;28;46008;-61
2023/02/09 00:20:09;;;;;;;;;83.25;67.50;;;;;6.33;45.49;102574.22;2061974;28;45751;-61
2023/02/09 00:21:10;;;;;;;;;79.25;62.50;;;;;6.31;45.24;102568.91;2062549;28;46781;-62
2023/02/09 00:22:11;;;;;;;;;82.75;68.75;;;;;6.30;45.76;102569.75;2062738;28;45755;-60
2023/02/09 00:23:11;;;;;;;;;79.75;63.00;;;;;6.29;45.42;102572.38;2062467;28;46624;-60
2023/02/09 00:24:12;;;;;;;;;81.00;64.50;;;;;6.29;45.38;102567.09;2062297;28;46969;-61
2023/02/09 00:25:13;;;;;;;;;84.25;71.00;;;;;6.28;45.75;102568.84;2062472;28;46589;-61
2023/02/09 00:26:13;;;;;;;;;85.00;71.00;;;;;6.26;45.04;102570.56;2062272;28;46419;-62
2023/02/09 00:27:13;;;;;;;;;82.00;68.00;;;;;6.26;45.45;102569.66;2057766;28;46158;-60
2023/02/09 00:28:14;;;;;;;;;84.00;69.75;;;;;6.26;45.77;102569.66;2054638;28;46410;-61
2023/02/09 00:29:15;;;;;;;;;83.00;68.75;;;;;6.25;45.66;102566.13;2062146;28;46193;-62
2023/02/09 00:30:15;;;;;;;;;86.25;73.00;;;;;6.25;45.48;102565.25;2062130;28;46398;-60
2023/02/09 00:31:16;;;;;;;;;83.50;69.00;;;;;6.24;45.51;102564.34;2060072;28;46328;-61
2023/02/09 00:32:16;;;;;;;;;89.00;72.50;;;;;6.25;45.42;102567.88;2061616;28;46327;-61
2023/02/09 00:33:17;;;;;;;;;87.25;75.50;;;;;6.24;45.88;102564.34;2062238;28;45459;-60
2023/02/09 00:34:18;;;;;;;;;87.25;75.50;;;;;6.23;45.37;102565.22;2062278;28;46244;-60
2023/02/09 00:35:19;;;;;;;;;86.75;71.25;;;;;6.22;45.67;102566.03;2064513;28;46769;-61
2023/02/09 00:36:20;;;;;;;;;83.75;70.00;;;;;6.20;45.46;102563.34;2070564;28;46757;-61
2023/02/09 00:37:20;;;;;;;;;87.75;73.25;;;;;6.19;45.61;102569.50;2064466;28;46473;-61
2023/02/09 00:38:20;;;;;;;;;88.25;75.50;;;;;6.18;45.95;102564.19;2062390;28;47009;-60
2023/02/09 00:39:21;;;;;;;;;89.75;78.50;;;;;6.17;45.82;102565.03;2070988;28;46133;-60
2023/02/09 00:40:21;;;;;;;;;90.67;80.67;;;;;6.15;45.61;102566.75;2070476;27;45526;-60
2023/02/09 00:42:04;;;;;;;;;87.33;73.33;;;;;6.14;46.07;102557.94;2062864;28;45889;-59
2023/02/09 00:42:42;;;;;;;;;91.00;78.25;;;;;6.13;45.78;102558.81;2120513;27;45699;-60
2023/02/09 00:43:42;;;;;;;;;88.00;75.67;;;;;6.11;45.90;102559.63;2112516;27;46364;-61
2023/02/09 00:44:43;;;;;;;;;85.75;72.00;;;;;6.09;46.14;102558.66;2112673;27;46330;-61
2023/02/09 00:45:43;;;;;;;;;87.50;77.75;;;;;6.08;45.45;102563.03;2120915;27;46154;-61
2023/02/09 00:46:43;;;;;;;;;89.67;77.67;;;;;6.06;45.95;102559.47;2121068;27;46197;-61
2023/02/09 00:47:44;;;;;;;;;89.00;76.67;;;;;6.06;46.29;102555.94;2120863;27;46978;-60
2023/02/09 00:48:44;;;;;;;;;92.33;81.67;;;;;6.05;46.15;102555.06;2121140;27;46226;-61
2023/02/09 00:49:44;;;;;;;;;91.75;82.00;;;;;6.03;45.95;102554.13;2121095;27;46310;-61
2023/02/09 00:50:45;;;;;;;;;90.75;81.50;;;;;6.02;46.18;102557.63;2120853;27;46252;-59
2023/02/09 00:51:46;;;;;;;;;86.00;72.50;;;;;6.01;46.13;102558.47;2121106;27;46220;-60
2023/02/09 00:52:46;;;;;;;;;86.67;72.67;;;;;6.01;46.30;102558.47;2121308;27;46797;-61
2023/02/09 00:53:46;;;;;;;;;91.33;82.33;;;;;6.01;46.34;102557.59;2120509;27;46610;-60
2023/02/09 00:54:46;;;;;;;;;84.25;69.75;;;;;5.99;46.19;102561.94;2121004;27;46442;-61
2023/02/09 00:55:47;;;;;;;;;86.50;74.50;;;;;5.98;45.93;102555.78;2121605;27;46365;-61
2023/02/09 00:56:48;;;;;;;;;87.25;77.25;;;;;5.98;46.67;102557.50;2120895;27;46453;-60
2023/02/09 00:57:48;;;;;;;;;92.00;73.33;;;;;5.96;46.25;102557.44;2120934;27;46345;-61
2023/02/09 00:58:48;;;;;;;;;84.25;70.25;;;;;5.98;46.45;102562.78;2120501;27;46195;-60
2023/02/09 00:59:49;;;;;;;;;91.67;80.67;;;;;5.97;46.77;102559.25;2112579;27;45877;-62
2023/02/09 01:00:49;;;;;;;;;87.00;75.50;;;;;5.97;46.46;102558.34;2112326;27;46464;-62
2023/02/09 01:01:50;;;;;;;;;89.25;75.00;;;;;5.97;46.26;102558.34;2120870;27;46539;-60
2023/02/09 01:02:50;;;;;;;;;89.00;75.50;;;;;5.96;46.38;102562.72;2117180;27;46590;-61
2023/02/09 01:03:51;;;;;;;;;86.00;74.75;;;;;5.96;46.66;102565.34;2121198;27;45931;-60
2023/02/09 01:04:51;;;;;;;;;80.00;64.00;;;;;5.97;46.32;102566.25;2120860;27;46734;-61
2023/02/09 01:05:52;;;;;;;;;88.00;73.33;;;;;5.96;46.91;102562.72;2113930;27;46381;-60
2023/02/09 01:06:52;;;;;;;;;90.00;78.33;;;;;5.97;46.31;102575.06;2105519;27;46609;-60
2023/02/09 01:07:54;;;;;;;;;92.33;81.67;;;;;5.98;46.65;102578.59;2112203;27;46696;-61
2023/02/09 01:08:54;;;;;;;;;92.00;80.33;;;;;5.97;46.61;102575.06;2112607;27;46956;-61
2023/02/09 01:09:55;;;;;;;;;92.00;82.00;;;;;5.95;46.64;102571.47;2119092;27;46201;-60
2023/02/09 01:10:55;;;;;;;;;89.67;78.00;;;;;5.94;46.77;102567.06;2119307;27;46796;-61
2023/02/09 01:11:56;;;;;;;;;88.00;76.67;;;;;5.93;46.75;102565.28;2112665;27;46799;-60
2023/02/09 01:12:56;;;;;;;;;92.00;84.00;;;;;5.93;46.65;102567.91;2117452;27;46325;-62
2023/02/09 01:13:59;;;;;;;;;88.67;76.00;;;;;5.92;46.58;102566.13;2121130;27;46272;-62
2023/02/09 01:15:01;;;;;;;;;98.00;90.00;;;;;5.92;46.72;102558.22;2120951;27;46569;-62
2023/02/09 01:16:09;;;;;;;;;97.33;91.67;;;;;5.90;46.42;102571.38;2121051;27;46687;-60
2023/02/09 01:17:09;;;;;;;;;106.33;102.67;;;;;5.91;46.97;102564.34;2120567;27;46679;-60
2023/02/09 01:18:10;;;;;;;;;108.00;100.33;;;;;5.89;46.64;102563.38;2104310;28;46423;-60
2023/02/09 01:19:12;;;;;;;;;117.33;108.33;;;;;5.88;47.04;102565.13;2107889;27;45443;-62
2023/02/09 01:20:12;;;;;;;;;112.33;107.00;;;;;5.86;46.58;102564.19;2112826;27;46541;-62
2023/02/09 01:21:19;;;;;;;;;129.33;121.67;;;;;5.87;46.70;102565.09;2070750;27;45122;-61
2023/02/09 01:22:20;;;;;;;;;126.67;118.67;;;;;5.86;46.95;102579.13;2062528;28;46631;-62
2023/02/09 01:23:20;;;;;;;;;128.00;119.67;;;;;5.85;46.61;102574.69;2062469;28;46621;-61
2023/02/09 01:24:20;;;;;;;;;118.33;113.67;;;;;5.84;46.65;102578.16;2062133;28;46582;-61
2023/02/09 01:25:21;;;;;;;;;121.00;110.33;;;;;5.83;46.70;102573.75;2062317;28;46725;-61
2023/02/09 01:26:21;;;;;;;;;119.33;112.67;;;;;5.81;47.11;102580.72;2062392;28;46614;-61
2023/02/09 01:27:22;;;;;;;;;108.67;106.00;;;;;5.79;46.68;102580.69;2061828;28;46768;-61
2023/02/09 01:28:22;;;;;;;;;114.33;108.33;;;;;5.78;47.04;102583.28;2062634;28;45976;-60
2023/02/09 01:29:23;;;;;;;;;115.00;111.33;;;;;5.76;46.92;102577.97;2103391;27;46501;-61
2023/02/09 01:30:23;;;;;;;;;106.33;99.33;;;;;5.76;47.11;102577.06;2103322;27;46676;-62
2023/02/09 01:31:30;;;;;;;;;109.33;107.00;;;;;5.75;46.91;102578.81;2054533;28;46592;-60
2023/02/09 01:32:31;;;;;;;;;101.67;97.00;;;;;5.75;46.87;102584.09;2061143;28;46494;-60
2023/02/09 01:33:32;;;;;;;;;111.33;105.33;;;;;5.75;46.83;102581.44;2061534;28;46205;-62
2023/02/09 01:34:32;;;;;;;;;103.33;96.00;;;;;5.74;47.00;102584.06;2062143;28;46587;-60
2023/02/09 01:35:32;;;;;;;;;114.33;104.33;;;;;5.73;47.31;102587.53;2062201;28;46432;-61
2023/02/09 01:36:33;;;;;;;;;112.67;103.00;;;;;5.72;46.66;102580.47;2068841;28;47093;-61
2023/02/09 01:37:34;;;;;;;;;95.67;85.33;;;;;5.71;47.28;102584.81;2061312;28;45285;-61
2023/02/09 01:38:35;;;;;;;;;101.33;96.33;;;;;5.69;47.31;102578.63;2061354;28;46531;-61
2023/02/09 01:39:35;;;;;;;;;100.67;94.67;;;;;5.69;47.30;102583.91;2069103;28;46739;-61
2023/02/09 01:40:35;;;;;;;;;110.67;105.67;;;;;5.70;46.94;102571.63;2069740;28;45584;-61
2023/02/09 01:41:36;;;;;;;;;115.00;109.33;;;;;5.69;47.12;102581.25;2069133;28;46508;-60
2023/02/09 01:42:36;;;;;;;;;110.00;104.00;;;;;5.70;47.20;102580.41;2069211;28;46369;-61
2023/02/09 01:43:59;;;;;;;;;106.33;100.67;;;;;5.70;47.35;102579.53;2069517;28;45720;-61
2023/02/09 01:45:18;;;;;;;;;100.67;96.67;;;;;5.70;47.21;102582.16;2069536;28;45803;-61
2023/02/09 01:46:20;;;;;;;;;103.33;95.67;;;;;5.68;47.51;102579.47;2069409;28;46540;-62
2023/02/09 01:47:22;;;;;;;;;109.00;102.33;;;;;5.69;47.49;102580.38;2069375;28;47288;-62
2023/02/09 01:48:27;;;;;;;;;98.67;90.00;;;;;5.67;47.23;102577.69;2069233;28;46683;-60
2023/02/09 01:49:27;;;;;;;;;97.00;95.33;;;;;5.69;47.56;102580.38;2069058;28;46404;-61
2023/02/09 01:50:34;;;;;;;;;99.67;94.67;;;;;5.69;47.49;102585.63;2053027;28;46609;-60
2023/02/09 01:51:40;;;;;;;;;107.33;96.67;;;;;5.69;47.54;102575.09;2054483;28;46469;-60
2023/02/09 01:52:44;;;;;;;;;105.67;100.33;;;;;5.66;47.17;102575.91;2069443;28;46479;-62
2023/02/09 01:53:45;;;;;;;;;98.00;94.33;;;;;5.64;47.46;102577.63;2069294;28;46599;-61
2023/02/09 01:54:58;;;;;;;;;100.67;96.67;;;;;5.64;47.06;102577.63;2069114;28;45696;-61
2023/02/09 01:56:06;;;;;;;;;96.00;89.67;;;;;5.64;47.36;102577.63;2069121;28;47102;-62
2023/02/09 01:57:13;;;;;;;;;99.67;92.67;;;;;5.63;47.66;102573.19;2068966;28;46525;-60
2023/02/09 01:58:17;;;;;;;;;103.00;96.33;;;;;5.62;47.53;102574.06;2063828;28;45836;-61
2023/02/09 01:59:18;;;;;;;;;98.00;93.00;;;;;5.61;47.71;102577.53;2062208;28;46651;-61
2023/02/09 02:00:20;;;;;;;;;99.33;92.33;;;;;5.60;47.48;102581.91;2069033;28;46362;-61
2023/02/09 02:01:21;;;;;;;;;108.67;100.00;;;;;5.61;47.51;102580.19;2068997;27;46420;-62
2023/02/09 02:02:22;;;;;;;;;100.67;93.67;;;;;5.62;47.94;102574.06;2062739;28;47237;-61
2023/02/09 02:03:26;;;;;;;;;98.00;94.00;;;;;5.61;47.81;102578.44;2064102;28;46772;-63
2023/02/09 02:04:27;;;;;;;;;110.00;100.00;;;;;5.61;47.78;102578.44;2065064;28;45422;-62
2023/02/09 02:05:30;;;;;;;;;99.00;98.00;;;;;5.61;47.54;102577.53;2075621;28;46599;-60
2023/02/09 02:06:31;;;;;;;;;106.67;97.67;;;;;5.61;48.04;102577.53;2065771;28;46589;-61
2023/02/09 02:07:45;;;;;;;;;100.67;95.33;;;;;5.59;47.49;102574.88;2066671;28;46444;-62
2023/02/09 02:09:10;;;;;;;;;92.67;83.33;;;;;5.58;47.44;102575.69;2053622;28;45773;-60
2023/02/09 02:10:10;;;;;;;;;95.67;88.33;;;;;5.58;47.69;102578.31;2093498;28;45857;-60
2023/02/09 02:11:11;;;;;;;;;96.33;89.33;;;;;5.58;47.78;102572.16;2072569;28;46191;-60
2023/02/09 02:12:13;;;;;;;;;99.33;93.67;;;;;5.57;47.93;102576.53;2054524;28;46761;-60
2023/02/09 02:13:13;;;;;;;;;101.33;97.00;;;;;5.59;47.80;102585.41;2054261;28;46832;-61
2023/02/09 02:14:34;;;;;;;;;98.00;93.67;;;;;5.59;48.09;102587.16;2058368;28;46547;-60
2023/02/09 02:15:58;;;;;;;;;102.33;99.00;;;;;5.58;47.74;102583.59;2061928;28;46370;-62
2023/02/09 02:17:06;;;;;;;;;96.33;88.33;;;;;5.56;47.90;102584.41;2060987;28;45838;-60
2023/02/09 02:18:24;;;;;;;;;98.00;91.00;;;;;5.54;47.96;102580.84;2060680;28;46435;-61
2023/02/09 02:20:09;;;;;;;;;107.67;97.00;;;;;5.52;47.99;102591.34;2060483;28;46711;-61
2023/02/09 02:21:43;;;;;;;;;108.33;95.33;;;;;5.52;48.25;102588.69;2062091;28;46602;-62
2023/02/09 02:23:13;;;;;;;;;102.33;94.33;;;;;5.52;47.77;102590.44;2061890;28;46089;-61
2023/02/09 02:24:44;;;;;;;;;100.67;98.00;;;;;5.51;48.36;102591.28;2062177;28;46823;-61
2023/02/09 02:26:05;;;;;;;;;99.33;94.00;;;;;5.51;48.18;102594.81;2061967;28;46771;-61
2023/02/09 02:27:16;;;;;;;;;93.33;84.33;;;;;5.51;48.25;102600.06;2062188;28;46905;-60
2023/02/09 02:28:41;;;;;;;;;101.33;97.33;;;;;5.50;48.41;102590.41;2061584;28;46466;-61
2023/02/09 02:30:13;;;;;;;;;99.00;91.67;;;;;5.49;47.99;102593.00;2062440;28;46395;-62
2023/02/09 02:31:38;;;;;;;;;101.00;94.33;;;;;5.48;47.86;102593.84;2054132;28;46578;-61
2023/02/09 02:32:44;;;;;;;;;94.67;85.67;;;;;5.46;48.25;102592.88;2050727;28;46329;-59
2023/02/09 02:33:51;;;;;;;;;105.67;102.00;;;;;5.45;47.93;102591.09;2054961;28;46995;-60
2023/02/09 02:35:01;;;;;;;;;97.00;89.33;;;;;5.43;47.90;102588.41;2046320;28;46813;-61
2023/02/09 02:36:14;;;;;;;;;104.33;101.67;;;;;5.43;48.13;102580.53;2054221;28;47311;-59
2023/02/09 02:37:38;;;;;;;;;95.67;91.00;;;;;5.41;48.11;102581.31;2052779;28;46545;-62
2023/02/09 02:39:03;;;;;;;;;100.33;95.00;;;;;5.40;48.45;102575.16;2056429;28;46422;-59
2023/02/09 02:40:19;;;;;;;;;106.33;99.33;;;;;5.41;48.27;102581.31;2061998;28;46536;-61
2023/02/09 02:42:47;;;;;;;;;101.67;92.00;;;;;5.38;48.18;102581.25;2062102;28;45695;-62
2023/02/09 02:43:08;;;;;;;;;103.00;96.33;;;;;5.36;48.28;102581.22;2061747;28;46781;-60
2023/02/09 02:44:16;;;;;;;;;95.67;88.33;;;;;5.33;48.21;102581.09;2062534;28;46041;-60
2023/02/09 02:45:20;;;;;;;;;89.00;76.67;;;;;5.33;48.46;102581.09;2061366;28;46791;-61
2023/02/09 02:46:35;;;;;;;;;95.00;77.67;;;;;5.32;48.18;102579.31;2061778;28;46490;-61
2023/02/09 02:47:41;;;;;;;;;97.00;90.00;;;;;5.31;48.65;102573.16;2061974;28;46208;-60
2023/02/09 02:48:49;;;;;;;;;96.00;83.67;;;;;5.32;48.71;102574.94;2062060;28;46512;-61
2023/02/09 02:50:00;;;;;;;;;97.33;89.67;;;;;5.30;48.26;102575.75;2053922;28;46490;-60
2023/02/09 02:51:21;;;;;;;;;95.33;86.67;;;;;5.28;48.42;102570.44;2055127;28;47118;-60
2023/02/09 02:52:22;;;;;;;;;83.33;66.00;;;;;5.26;48.17;102565.97;2061804;28;46924;-61
2023/02/09 02:53:28;;;;;;;;;95.00;88.33;;;;;5.25;48.54;102572.09;2053921;28;46840;-61
2023/02/09 02:54:34;;;;;;;;;94.00;82.00;;;;;5.25;48.50;102574.72;2045969;28;47284;-61
2023/02/09 02:55:37;;;;;;;;;92.67;84.33;;;;;5.26;48.88;102573.88;2054383;28;46303;-61
2023/02/09 02:56:43;;;;;;;;;92.00;78.33;;;;;5.27;48.38;102573.03;2062207;28;47088;-60
2023/02/09 02:57:49;;;;;;;;;97.67;92.00;;;;;5.27;48.71;102578.28;2061674;28;47283;-60
2023/02/09 02:58:53;;;;;;;;;94.00;81.00;;;;;5.28;48.54;102580.97;2060671;28;46937;-61
2023/02/09 02:59:59;;;;;;;;;91.00;81.00;;;;;5.29;48.47;102581.84;2060940;28;45742;-61
2023/02/09 03:01:01;;;;;;;;;95.00;85.67;;;;;5.29;48.44;102582.75;2061544;28;46920;-61
2023/02/09 03:02:14;;;;;;;;;97.00;89.33;;;;;5.30;48.10;102587.16;2061667;28;46501;-59
2023/02/09 03:03:19;;;;;;;;;96.33;86.67;;;;;5.30;48.40;102581.00;2061416;28;46750;-59
2023/02/09 03:04:20;;;;;;;;;93.33;85.67;;;;;5.29;48.03;102585.38;2061711;28;46468;-61
2023/02/09 03:05:23;;;;;;;;;95.67;81.33;;;;;5.29;48.20;102589.75;2074377;28;46758;-59
2023/02/09 03:06:23;;;;;;;;;91.67;80.67;;;;;5.28;47.98;102587.97;2057099;28;46463;-61
2023/02/09 03:07:23;;;;;;;;;95.00;87.33;;;;;5.26;48.37;102580.03;2056527;28;45382;-61
2023/02/09 03:08:24;;;;;;;;;92.33;84.33;;;;;5.25;48.20;102580.00;2053532;28;46353;-60
2023/02/09 03:09:24;;;;;;;;;93.67;87.67;;;;;5.23;48.19;102581.69;2057961;28;46463;-60
2023/02/09 03:10:37;;;;;;;;;91.67;83.33;;;;;5.21;48.64;102579.03;2061071;28;46402;-59
2023/02/09 03:11:48;;;;;;;;;95.00;83.33;;;;;5.19;48.19;102572.78;2053680;28;46916;-61
2023/02/09 03:12:55;;;;;;;;;92.67;85.00;;;;;5.17;48.40;102577.13;2060378;28;46545;-61
2023/02/09 03:14:10;;;;;;;;;95.00;85.00;;;;;5.16;48.50;102562.19;2061578;28;46359;-61
2023/02/09 03:15:43;;;;;;;;;93.67;82.33;;;;;5.15;48.44;102570.03;2061313;28;46340;-60
2023/02/09 03:16:58;;;;;;;;;84.00;65.33;;;;;5.13;48.56;102572.63;2061465;28;46409;-60
2023/02/09 03:18:39;;;;;;;;;91.00;81.50;;;;;5.14;48.78;102574.41;2061417;28;45609;-61
2023/02/09 03:20:21;;;;;;;;;97.00;86.67;;;;;5.11;48.82;102571.69;2061371;28;46893;-62
2023/02/09 03:21:51;;;;;;;;;95.33;85.33;;;;;5.10;48.35;102572.53;2061430;28;46118;-61
2023/02/09 03:22:59;;;;;;;;;92.33;81.67;;;;;5.10;48.55;102574.28;2062588;28;46661;-62
2023/02/09 03:24:06;;;;;;;;;93.00;81.33;;;;;5.09;48.39;102569.84;2062373;28;46388;-61
2023/02/09 03:25:13;;;;;;;;;91.00;79.00;;;;;5.08;48.60;102566.31;2069270;28;45710;-61
2023/02/09 03:26:21;;;;;;;;;91.33;79.00;;;;;5.07;48.54;102567.16;2061391;28;46495;-60
2023/02/09 03:27:38;;;;;;;;;91.33;79.67;;;;;5.08;48.91;102566.31;2062008;28;45920;-62
2023/02/09 03:28:42;;;;;;;;;95.00;85.00;;;;;5.09;48.38;102565.50;2062690;28;46311;-62
2023/02/09 03:29:46;;;;;;;;;94.33;82.33;;;;;5.09;48.90;102564.59;2062464;28;46362;-62
2023/02/09 03:30:48;;;;;;;;;95.33;82.00;;;;;5.09;48.75;102577.75;2062425;28;46746;-60
2023/02/09 03:31:49;;;;;;;;;91.67;80.33;;;;;5.08;48.51;102568.03;2062916;28;45691;-61
2023/02/09 03:32:55;;;;;;;;;96.00;85.33;;;;;5.07;48.48;102574.16;2062783;28;46714;-61
2023/02/09 03:33:57;;;;;;;;;92.00;81.67;;;;;5.05;48.54;102571.47;2062390;28;47572;-60
2023/02/09 03:34:57;;;;;;;;;85.33;70.00;;;;;5.05;48.56;102566.22;2062718;28;46376;-61
2023/02/09 03:35:59;;;;;;;;;89.67;79.00;;;;;5.06;48.79;102572.38;2062629;28;46159;-60
2023/02/09 03:37:00;;;;;;;;;97.33;86.33;;;;;5.06;48.89;102572.38;2063046;28;45642;-60
2023/02/09 03:38:01;;;;;;;;;94.67;82.67;;;;;5.07;48.28;102566.25;2062583;28;46094;-61
2023/02/09 03:39:02;;;;;;;;;94.67;85.33;;;;;5.08;48.31;102565.41;2054677;28;45428;-60
2023/02/09 03:40:03;;;;;;;;;93.00;80.00;;;;;5.08;48.52;102568.03;2058005;28;46307;-60
2023/02/09 03:41:03;;;;;;;;;95.00;85.00;;;;;5.07;48.67;102575.03;2062779;28;46282;-59
2023/02/09 03:42:04;;;;;;;;;98.00;86.33;;;;;5.07;48.73;102572.41;2056567;28;46501;-62
2023/02/09 03:43:04;;;;;;;;;89.25;74.75;;;;;5.06;48.99;102570.63;2054601;28;46709;-60
2023/02/09 03:45:25;;;;;;;;;91.25;80.25;;;;;5.07;49.04;102571.53;2060780;28;47176;-62
2023/02/09 03:46:25;;;;;;;;;93.00;84.67;;;;;5.08;48.92;102562.78;2062833;28;46270;-61
2023/02/09 03:47:25;;;;;;;;;90.67;76.00;;;;;5.09;48.61;102562.84;2062426;28;46193;-61
2023/02/09 03:48:25;;;;;;;;;92.33;80.67;;;;;5.09;49.08;102561.97;2073033;28;46018;-60
2023/02/09 03:49:30;;;;;;;;;89.00;76.33;;;;;5.09;48.68;102559.34;2078532;27;46426;-61
2023/02/09 03:50:31;;;;;;;;;92.00;76.33;;;;;5.08;48.19;102563.66;2070688;27;46610;-61
2023/02/09 03:51:32;;;;;;;;;89.50;75.00;;;;;5.06;48.65;102562.75;2062003;28;46583;-60
2023/02/09 03:52:32;;;;;;;;;90.50;78.50;;;;;5.05;48.46;102560.97;2095411;28;46753;-62
2023/02/09 03:53:36;;;;;;;;;89.25;78.00;;;;;5.05;48.22;102568.84;2104004;28;46614;-61
2023/02/09 03:54:37;;;;;;;;;89.25;77.25;;;;;5.03;48.58;102566.19;2070916;28;46604;-62
2023/02/09 03:55:37;;;;;;;;;86.75;72.50;;;;;5.03;48.34;102562.66;2070420;28;46224;-60
2023/02/09 03:56:38;;;;;;;;;90.00;74.00;;;;;5.02;48.42;102560.88;2070705;27;46224;-60
2023/02/09 03:57:38;;;;;;;;;88.00;73.25;;;;;5.00;48.67;102558.19;2062082;28;46437;-61
2023/02/09 03:58:38;;;;;;;;;85.75;71.75;;;;;4.99;48.42;102564.31;2061830;28;46225;-61
2023/02/09 03:59:39;;;;;;;;;85.75;70.50;;;;;4.99;48.45;102561.69;2070156;28;46090;-60
2023/02/09 04:00:39;;;;;;;;;88.00;73.00;;;;;4.98;48.27;102564.25;2070748;27;46893;-61
2023/02/09 04:01:39;;;;;;;;;85.75;68.75;;;;;4.97;48.40;102568.63;2070364;27;46308;-62
2023/02/09 04:02:40;;;;;;;;;84.75;70.00;;;;;4.98;48.49;102566.91;2070609;27;46539;-62
2023/02/09 04:03:40;;;;;;;;;82.50;67.75;;;;;4.97;48.42;102573.00;2070570;27;46465;-62
2023/02/09 04:04:41;;;;;;;;;80.50;64.00;;;;;4.96;48.81;102574.75;2070671;27;46210;-61
2023/02/09 04:05:41;;;;;;;;;79.25;62.75;;;;;4.95;48.72;102577.31;2091242;27;46229;-61
2023/02/09 04:06:41;;;;;;;;;82.75;65.75;;;;;4.95;48.61;102569.41;2070474;28;46248;-61
2023/02/09 04:07:42;;;;;;;;;78.50;62.00;;;;;4.95;48.93;102574.66;2066056;28;46841;-61
2023/02/09 04:08:42;;;;;;;;;75.75;62.50;;;;;4.96;49.01;102571.22;2062686;28;46556;-61
2023/02/09 04:09:42;;;;;;;;;81.75;64.00;;;;;4.95;48.43;102578.19;2062859;28;45717;-62
2023/02/09 04:10:43;;;;;;;;;82.75;64.50;;;;;4.94;48.54;102579.03;2062231;28;46766;-61
2023/02/09 04:11:43;;;;;;;;;80.50;64.00;;;;;4.91;48.53;102573.69;2062975;28;44907;-61
2023/02/09 04:12:43;;;;;;;;;81.00;64.25;;;;;4.91;48.45;102581.59;2068412;28;46225;-62
2023/02/09 04:13:44;;;;;;;;;76.50;63.00;;;;;4.90;48.73;102582.44;2070472;27;45932;-62
2023/02/09 04:14:44;;;;;;;;;87.25;69.00;;;;;4.90;48.88;102587.69;2070970;27;45938;-62
2023/02/09 04:15:44;;;;;;;;;80.00;63.25;;;;;4.88;48.95;102584.13;2061917;28;46633;-62
2023/02/09 04:16:45;;;;;;;;;82.75;65.25;;;;;4.86;48.75;102591.09;2061715;28;46990;-61
2023/02/09 04:17:45;;;;;;;;;78.75;63.75;;;;;4.86;48.93;102590.19;2070709;27;46529;-62
2023/02/09 04:18:45;;;;;;;;;79.25;63.75;;;;;4.85;48.63;102586.66;2070306;27;46404;-62
2023/02/09 04:19:46;;;;;;;;;76.00;60.75;;;;;4.85;48.49;102585.78;2070698;28;46158;-61
2023/02/09 04:20:46;;;;;;;;;76.25;61.00;;;;;4.83;48.79;102583.09;2076463;28;46030;-62
2023/02/09 04:21:47;;;;;;;;;77.75;62.25;;;;;4.84;49.12;102584.00;2077995;28;45897;-62
2023/02/09 04:22:47;;;;;;;;;79.00;64.00;;;;;4.82;48.47;102581.28;2070909;27;46482;-61
2023/02/09 04:23:47;;;;;;;;;74.75;60.25;;;;;4.83;48.43;102577.84;2070401;27;46317;-60
2023/02/09 04:24:48;;;;;;;;;75.50;60.50;;;;;4.84;48.88;102576.09;2070576;27;46708;-61
2023/02/09 04:25:48;;;;;;;;;71.50;59.25;;;;;4.84;48.66;102577.00;2063518;28;46575;-61
2023/02/09 04:26:48;;;;;;;;;75.00;60.75;;;;;4.83;48.34;102567.31;2062484;28;46642;-61
2023/02/09 04:27:49;;;;;;;;;73.00;59.50;;;;;4.82;49.07;102569.88;2062695;28;46503;-62
2023/02/09 04:28:49;;;;;;;;;71.75;59.00;;;;;4.80;48.50;102572.47;2062266;28;45691;-61
2023/02/09 04:29:50;;;;;;;;;72.50;59.25;;;;;4.81;48.42;102570.72;2064021;28;46366;-61
2023/02/09 04:30:52;;;;;;;;;68.00;55.75;;;;;4.79;48.20;102577.66;2071159;27;46559;-61
2023/02/09 04:31:53;;;;;;;;;68.50;55.50;;;;;4.77;48.80;102575.00;2070994;28;46691;-62
2023/02/09 04:32:53;;;;;;;;;73.25;58.75;;;;;4.77;48.43;102575.00;2068791;27;46670;-62
2023/02/09 04:33:53;;;;;;;;;72.50;58.25;;;;;4.79;48.80;102585.56;2064913;28;46545;-60
2023/02/09 04:34:54;;;;;;;;;75.75;60.50;;;;;4.79;48.68;102582.94;2054744;28;46317;-61
2023/02/09 04:35:54;;;;;;;;;66.50;54.00;;;;;4.78;48.47;102584.66;2062003;28;47214;-61
2023/02/09 04:36:54;;;;;;;;;67.50;55.00;;;;;4.78;48.73;102578.53;2070120;27;46146;-60
2023/02/09 04:37:55;;;;;;;;;75.75;59.75;;;;;4.77;49.01;102571.47;2071014;27;46267;-61
2023/02/09 04:38:55;;;;;;;;;76.25;61.25;;;;;4.77;48.52;102579.38;2070582;27;46629;-63
2023/02/09 04:39:56;;;;;;;;;71.50;60.00;;;;;4.76;48.46;102572.31;2070186;27;46938;-60
2023/02/09 04:40:58;;;;;;;;;77.75;62.75;;;;;4.77;48.96;102567.09;2070704;28;46379;-59
2023/02/09 04:41:59;;;;;;;;;76.00;60.25;;;;;4.79;48.56;102569.78;2070520;28;46475;-60
2023/02/09 04:42:59;;;;;;;;;76.25;61.25;;;;;4.78;48.39;102558.38;2070436;28;46240;-60
2023/02/09 04:43:59;;;;;;;;;76.00;62.00;;;;;4.78;48.99;102555.75;2070411;28;46797;-61
2023/02/09 04:45:00;;;;;;;;;59.50;47.50;;;;;4.75;48.95;102553.03;2070621;28;45420;-61
2023/02/09 04:46:00;;;;;;;;;78.00;61.25;;;;;4.73;48.63;102554.72;2070668;28;46456;-61
2023/02/09 04:47:00;;;;;;;;;77.00;62.75;;;;;4.69;48.64;102556.34;2061581;28;46666;-60
2023/02/09 04:48:01;;;;;;;;;75.25;60.50;;;;;4.68;49.04;102553.66;2061799;28;45441;-62
2023/02/09 04:49:01;;;;;;;;;81.50;64.75;;;;;4.67;49.11;102551.88;2061500;28;46401;-61
2023/02/09 04:50:02;;;;;;;;;80.75;64.75;;;;;4.66;49.32;102550.97;2061791;28;46706;-61
2023/02/09 04:51:03;;;;;;;;;78.50;63.50;;;;;4.64;49.34;102546.53;2070473;27;46409;-61
2023/02/09 04:52:03;;;;;;;;;78.25;63.50;;;;;4.65;49.42;102548.31;2070372;28;46399;-62
2023/02/09 04:53:04;;;;;;;;;89.75;75.75;;;;;4.65;49.00;102545.69;2070700;27;45590;-60
2023/02/09 04:54:04;;;;;;;;;84.00;68.75;;;;;4.65;49.25;102546.56;2070435;27;46120;-60
2023/02/09 04:55:04;;;;;;;;;84.50;69.50;;;;;4.66;49.64;102540.47;2070933;28;45431;-61
2023/02/09 04:56:05;;;;;;;;;84.25;68.50;;;;;4.66;49.29;102540.47;2095236;28;46096;-62
2023/02/09 04:59:44;;;;;;;;;94.67;82.67;;;;;4.66;49.91;102544.84;2065900;28;47042;-61
2023/02/09 05:00:44;;;;;;;;;96.33;84.33;;;;;4.65;49.97;102532.53;2061864;28;46199;-62